sensor_id;sensor_type;location;lat;lon;timestamp;pressure;altitude;pressure_sealevel;temperature;humidity
21838;BME280;11081;45.946;6.140;2022-10-16T00:01:04;95214.81;;;15.80;81.15
21838;BME280;11081;45.946;6.140;2022-10-16T00:03:33;95215.84;;;15.79;81.06
21838;BME280;11081;45.946;6.140;2022-10-16T00:06:01;95214.81;;;15.80;80.81
21838;BME280;11081;45.946;6.140;2022-10-16T00:08:29;95209.47;;;15.70;80.58
21838;BME280;11081;45.946;6.140;2022-10-16T00:11:02;95207.38;;;15.72;80.07
21838;BME280;11081;45.946;6.140;2022-10-16T00:13:32;95208.47;;;15.76;80.34
21838;BME280;11081;45.946;6.140;2022-10-16T00:16:01;95210.66;;;15.84;79.58
21838;BME280;11081;45.946;6.140;2022-10-16T00:18:30;95210.16;;;15.88;79.48
21838;BME280;11081;45.946;6.140;2022-10-16T00:21:02;95217.50;;;15.85;78.91
21838;BME280;11081;45.946;6.140;2022-10-16T00:23:31;95222.78;;;15.85;79.31
21838;BME280;11081;45.946;6.140;2022-10-16T00:26:01;95223.28;;;15.82;79.50
21838;BME280;11081;45.946;6.140;2022-10-16T00:28:29;95222.16;;;15.78;79.79
21838;BME280;11081;45.946;6.140;2022-10-16T00:31:02;95225.81;;;15.72;80.25
21838;BME280;11081;45.946;6.140;2022-10-16T00:33:30;95227.34;;;15.68;80.21
21838;BME280;11081;45.946;6.140;2022-10-16T00:35:59;95225.16;;;15.60;80.79
21838;BME280;11081;45.946;6.140;2022-10-16T00:38:27;95224.84;;;15.56;80.80
21838;BME280;11081;45.946;6.140;2022-10-16T00:40:55;95232.00;;;15.61;80.81
21838;BME280;11081;45.946;6.140;2022-10-16T00:43:36;95227.56;;;15.62;80.57
21838;BME280;11081;45.946;6.140;2022-10-16T00:46:13;95233.63;;;15.62;80.67
21838;BME280;11081;45.946;6.140;2022-10-16T00:48:47;95227.31;;;15.63;80.40
21838;BME280;11081;45.946;6.140;2022-10-16T00:51:19;95233.53;;;15.57;81.09
21838;BME280;11081;45.946;6.140;2022-10-16T00:53:49;95236.16;;;15.57;80.91
21838;BME280;11081;45.946;6.140;2022-10-16T00:56:18;95243.50;;;15.55;81.45
21838;BME280;11081;45.946;6.140;2022-10-16T00:58:46;95241.63;;;15.50;81.68
21838;BME280;11081;45.946;6.140;2022-10-16T01:01:15;95236.88;;;15.47;81.63
21838;BME280;11081;45.946;6.140;2022-10-16T01:03:43;95239.75;;;15.46;81.48
21838;BME280;11081;45.946;6.140;2022-10-16T01:06:21;95235.00;;;15.43;81.59
21838;BME280;11081;45.946;6.140;2022-10-16T01:09:04;95241.22;;;15.37;81.62
21838;BME280;11081;45.946;6.140;2022-10-16T01:11:39;95229.13;;;15.36;81.75
21838;BME280;11081;45.946;6.140;2022-10-16T01:14:14;95234.38;;;15.36;81.51
21838;BME280;11081;45.946;6.140;2022-10-16T01:16:50;95239.63;;;15.36;81.46
21838;BME280;11081;45.946;6.140;2022-10-16T01:19:31;95239.63;;;15.36;81.51
21838;BME280;11081;45.946;6.140;2022-10-16T01:22:05;95239.63;;;15.36;81.70
21838;BME280;11081;45.946;6.140;2022-10-16T01:24:38;95232.78;;;15.35;81.70
21838;BME280;11081;45.946;6.140;2022-10-16T01:27:13;95233.28;;;15.32;81.85
21838;BME280;11081;45.946;6.140;2022-10-16T01:29:49;95232.75;;;15.30;82.09
21838;BME280;11081;45.946;6.140;2022-10-16T01:32:29;95233.28;;;15.32;81.74
21838;BME280;11081;45.946;6.140;2022-10-16T01:35:02;95234.88;;;15.33;81.86
21838;BME280;11081;45.946;6.140;2022-10-16T01:37:35;95233.50;;;15.25;82.34
21838;BME280;11081;45.946;6.140;2022-10-16T01:40:08;95231.63;;;15.20;82.13
21838;BME280;11081;45.946;6.140;2022-10-16T01:42:41;95237.34;;;15.17;82.44
21838;BME280;11081;45.946;6.140;2022-10-16T01:45:13;95244.38;;;15.12;83.02
21838;BME280;11081;45.946;6.140;2022-10-16T01:47:45;95239.88;;;15.07;83.08
21838;BME280;11081;45.946;6.140;2022-10-16T01:50:16;95233.56;;;15.08;83.18
21838;BME280;11081;45.946;6.140;2022-10-16T01:52:48;95235.66;;;15.06;83.06
21838;BME280;11081;45.946;6.140;2022-10-16T01:55:19;95233.06;;;15.11;82.58
21838;BME280;11081;45.946;6.140;2022-10-16T01:57:51;95239.97;;;15.17;81.90
21838;BME280;11081;45.946;6.140;2022-10-16T02:00:21;95240.41;;;15.09;82.92
21838;BME280;11081;45.946;6.140;2022-10-16T02:02:53;95242.19;;;15.04;82.70
21838;BME280;11081;45.946;6.140;2022-10-16T02:05:25;95243.50;;;15.01;83.07
21838;BME280;11081;45.946;6.140;2022-10-16T02:07:54;95242.38;;;14.97;83.04
21838;BME280;11081;45.946;6.140;2022-10-16T02:10:26;95245.75;;;14.92;82.89
21838;BME280;11081;45.946;6.140;2022-10-16T02:13:05;95243.84;;;14.88;83.67
21838;BME280;11081;45.946;6.140;2022-10-16T02:15:34;95238.59;;;14.88;83.25
21838;BME280;11081;45.946;6.140;2022-10-16T02:18:02;95240.63;;;14.81;83.79
21838;BME280;11081;45.946;6.140;2022-10-16T02:20:36;95230.66;;;14.83;83.50
21838;BME280;11081;45.946;6.140;2022-10-16T02:23:12;95232.25;;;14.84;83.13
21838;BME280;11081;45.946;6.140;2022-10-16T02:25:44;95234.63;;;14.85;83.53
21838;BME280;11081;45.946;6.140;2022-10-16T02:28:17;95235.41;;;14.86;83.63
21838;BME280;11081;45.946;6.140;2022-10-16T02:30:50;95235.22;;;14.92;83.40
21838;BME280;11081;45.946;6.140;2022-10-16T02:33:21;95234.94;;;14.89;83.62
21838;BME280;11081;45.946;6.140;2022-10-16T02:35:51;95232.06;;;14.90;83.77
21838;BME280;11081;45.946;6.140;2022-10-16T02:38:21;95240.19;;;14.89;83.79
21838;BME280;11081;45.946;6.140;2022-10-16T02:40:49;95237.00;;;14.87;83.70
21838;BME280;11081;45.946;6.140;2022-10-16T02:43:19;95233.28;;;14.83;83.55
21838;BME280;11081;45.946;6.140;2022-10-16T02:45:47;95240.13;;;14.84;84.00
21838;BME280;11081;45.946;6.140;2022-10-16T02:48:15;95228.81;;;14.83;84.29
21838;BME280;11081;45.946;6.140;2022-10-16T02:50:43;95234.94;;;14.89;83.77
21838;BME280;11081;45.946;6.140;2022-10-16T02:53:11;95231.56;;;14.93;83.98
21838;BME280;11081;45.946;6.140;2022-10-16T02:55:39;95235.97;;;14.88;83.94
21838;BME280;11081;45.946;6.140;2022-10-16T02:58:07;95224.91;;;14.86;84.16
21838;BME280;11081;45.946;6.140;2022-10-16T03:00:37;95241.47;;;14.86;84.23
21838;BME280;11081;45.946;6.140;2022-10-16T03:03:05;95231.75;;;14.87;83.76
21838;BME280;11081;45.946;6.140;2022-10-16T03:05:33;95232.25;;;14.84;83.85
21838;BME280;11081;45.946;6.140;2022-10-16T03:08:01;95246.91;;;14.80;84.16
21838;BME280;11081;45.946;6.140;2022-10-16T03:10:29;95245.34;;;14.79;84.25
21838;BME280;11081;45.946;6.140;2022-10-16T03:12:57;95254.59;;;14.64;84.80
21838;BME280;11081;45.946;6.140;2022-10-16T03:15:25;95254.78;;;14.41;85.89
21838;BME280;11081;45.946;6.140;2022-10-16T03:17:57;95252.75;;;14.43;85.78
21838;BME280;11081;45.946;6.140;2022-10-16T03:20:25;95256.53;;;14.52;85.23
21838;BME280;11081;45.946;6.140;2022-10-16T03:22:53;95257.16;;;14.59;85.24
21838;BME280;11081;45.946;6.140;2022-10-16T03:25:21;95253.00;;;14.63;85.05
21838;BME280;11081;45.946;6.140;2022-10-16T03:27:49;95259.41;;;14.51;85.28
21838;BME280;11081;45.946;6.140;2022-10-16T03:30:17;95253.97;;;14.57;85.30
21838;BME280;11081;45.946;6.140;2022-10-16T03:32:45;95254.59;;;14.64;84.50
21838;BME280;11081;45.946;6.140;2022-10-16T03:35:14;95258.88;;;14.71;84.10
21838;BME280;11081;45.946;6.140;2022-10-16T03:37:42;95257.59;;;14.73;83.56
21838;BME280;11081;45.946;6.140;2022-10-16T03:40:11;95246.91;;;14.80;82.90
21838;BME280;11081;45.946;6.140;2022-10-16T03:42:39;95258.53;;;14.84;82.40
21838;BME280;11081;45.946;6.140;2022-10-16T03:45:07;95256.44;;;14.86;81.90
21838;BME280;11081;45.946;6.140;2022-10-16T03:47:35;95250.44;;;14.90;81.62
21838;BME280;11081;45.946;6.140;2022-10-16T03:50:04;95262.25;;;14.88;82.24
21838;BME280;11081;45.946;6.140;2022-10-16T03:52:34;95253.88;;;14.91;81.96
21838;BME280;11081;45.946;6.140;2022-10-16T03:55:02;95257.03;;;14.93;81.55
21838;BME280;11081;45.946;6.140;2022-10-16T03:57:30;95253.38;;;14.94;81.34
21838;BME280;11081;45.946;6.140;2022-10-16T03:59:58;95266.56;;;14.99;81.30
21838;BME280;11081;45.946;6.140;2022-10-16T04:02:26;95268.66;;;14.97;81.07
21838;BME280;11081;45.946;6.140;2022-10-16T04:04:54;95278.56;;;14.90;81.48
21838;BME280;11081;45.946;6.140;2022-10-16T04:07:22;95265.31;;;14.80;82.21
21838;BME280;11081;45.946;6.140;2022-10-16T04:09:52;95275.25;;;14.78;82.08
21838;BME280;11081;45.946;6.140;2022-10-16T04:12:20;95273.66;;;14.77;82.63
21838;BME280;11081;45.946;6.140;2022-10-16T04:14:48;95275.44;;;14.71;82.67
21838;BME280;11081;45.946;6.140;2022-10-16T04:17:16;95274.63;;;14.71;82.85
21838;BME280;11081;45.946;6.140;2022-10-16T04:19:43;95280.69;;;14.71;82.71
21838;BME280;11081;45.946;6.140;2022-10-16T04:22:12;95273.59;;;14.72;83.11
21838;BME280;11081;45.946;6.140;2022-10-16T04:24:40;95272.56;;;14.73;82.82
21838;BME280;11081;45.946;6.140;2022-10-16T04:27:09;95267.31;;;14.73;82.75
21838;BME280;11081;45.946;6.140;2022-10-16T04:29:37;95272.56;;;14.73;82.82
21838;BME280;11081;45.946;6.140;2022-10-16T04:32:05;95279.41;;;14.74;83.24
21838;BME280;11081;45.946;6.140;2022-10-16T04:34:35;95274.63;;;14.71;83.29
21838;BME280;11081;45.946;6.140;2022-10-16T04:37:05;95270.66;;;14.68;83.59
21838;BME280;11081;45.946;6.140;2022-10-16T04:39:33;95274.16;;;14.74;83.17
21838;BME280;11081;45.946;6.140;2022-10-16T04:42:01;95272.56;;;14.73;83.10
21838;BME280;11081;45.946;6.140;2022-10-16T04:44:31;95277.81;;;14.73;83.53
21838;BME280;11081;45.946;6.140;2022-10-16T04:46:59;95268.88;;;14.74;83.62
21838;BME280;11081;45.946;6.140;2022-10-16T04:49:26;95277.81;;;14.73;83.43
21838;BME280;11081;45.946;6.140;2022-10-16T04:51:54;95272.56;;;14.73;83.65
21838;BME280;11081;45.946;6.140;2022-10-16T04:54:22;95284.66;;;14.74;83.41
21838;BME280;11081;45.946;6.140;2022-10-16T04:56:51;95286.25;;;14.75;83.02
21838;BME280;11081;45.946;6.140;2022-10-16T04:59:19;95282.75;;;14.69;83.57
21838;BME280;11081;45.946;6.140;2022-10-16T05:01:49;95286.69;;;14.67;83.96
21838;BME280;11081;45.946;6.140;2022-10-16T05:04:17;95283.75;;;14.63;83.74
21838;BME280;11081;45.946;6.140;2022-10-16T05:06:45;95291.88;;;14.61;83.85
21838;BME280;11081;45.946;6.140;2022-10-16T05:09:13;95288.19;;;14.62;84.23
21838;BME280;11081;45.946;6.140;2022-10-16T05:11:41;95290.28;;;14.60;84.16
21838;BME280;11081;45.946;6.140;2022-10-16T05:14:09;95290.72;;;14.57;84.17
21838;BME280;11081;45.946;6.140;2022-10-16T05:16:42;95296.47;;;14.54;84.02
21838;BME280;11081;45.946;6.140;2022-10-16T05:19:11;95285.19;;;14.54;83.63
21838;BME280;11081;45.946;6.140;2022-10-16T05:21:55;95294.41;;;14.56;83.59
21838;BME280;11081;45.946;6.140;2022-10-16T05:24:23;95284.38;;;14.53;83.95
21838;BME280;11081;45.946;6.140;2022-10-16T05:26:51;95288.34;;;14.56;84.02
21838;BME280;11081;45.946;6.140;2022-10-16T05:29:19;95291.88;;;14.61;83.46
21838;BME280;11081;45.946;6.140;2022-10-16T05:31:50;95291.63;;;14.63;82.72
21838;BME280;11081;45.946;6.140;2022-10-16T05:34:20;95285.03;;;14.60;82.95
21838;BME280;11081;45.946;6.140;2022-10-16T05:36:48;95281.34;;;14.61;82.67
21838;BME280;11081;45.946;6.140;2022-10-16T05:39:16;95286.91;;;14.65;83.37
21838;BME280;11081;45.946;6.140;2022-10-16T05:41:49;95280.38;;;14.68;82.58
21838;BME280;11081;45.946;6.140;2022-10-16T05:44:17;95281.97;;;14.69;83.01
21838;BME280;11081;45.946;6.140;2022-10-16T05:46:46;95277.81;;;14.73;83.02
21838;BME280;11081;45.946;6.140;2022-10-16T05:49:15;95286.25;;;14.75;82.77
21838;BME280;11081;45.946;6.140;2022-10-16T05:51:47;95293.56;;;14.73;83.17
21838;BME280;11081;45.946;6.140;2022-10-16T05:54:16;95288.81;;;14.70;83.65
21838;BME280;11081;45.946;6.140;2022-10-16T05:56:44;95295.66;;;14.71;84.29
21838;BME280;11081;45.946;6.140;2022-10-16T05:59:12;95301.22;;;14.74;84.73
21838;BME280;11081;45.946;6.140;2022-10-16T06:01:43;95308.94;;;14.81;84.21
21838;BME280;11081;45.946;6.140;2022-10-16T06:04:11;95307.34;;;14.80;83.89
21838;BME280;11081;45.946;6.140;2022-10-16T06:06:40;95309.97;;;14.80;84.10
21838;BME280;11081;45.946;6.140;2022-10-16T06:09:10;95306.78;;;14.78;84.20
21838;BME280;11081;45.946;6.140;2022-10-16T06:11:38;95310.13;;;14.73;84.48
21838;BME280;11081;45.946;6.140;2022-10-16T06:14:06;95326.16;;;14.72;84.03
21838;BME280;11081;45.946;6.140;2022-10-16T06:16:36;95317.97;;;14.68;84.47
21838;BME280;11081;45.946;6.140;2022-10-16T06:19:05;95323.03;;;14.75;84.25
21838;BME280;11081;45.946;6.140;2022-10-16T06:21:34;95325.09;;;14.73;83.90
21838;BME280;11081;45.946;6.140;2022-10-16T06:24:03;95324.56;;;14.71;83.92
21838;BME280;11081;45.946;6.140;2022-10-16T06:26:32;95335.78;;;14.66;84.80
21838;BME280;11081;45.946;6.140;2022-10-16T06:29:00;95326.88;;;14.67;84.72
21838;BME280;11081;45.946;6.140;2022-10-16T06:31:29;95328.72;;;14.67;84.78
21838;BME280;11081;45.946;6.140;2022-10-16T06:34:00;95332.91;;;14.68;84.34
21838;BME280;11081;45.946;6.140;2022-10-16T06:36:28;95332.91;;;14.68;84.88
21838;BME280;11081;45.946;6.140;2022-10-16T06:38:56;95330.28;;;14.68;84.98
21838;BME280;11081;45.946;6.140;2022-10-16T06:41:24;95343.44;;;14.68;84.97
21838;BME280;11081;45.946;6.140;2022-10-16T06:43:53;95341.41;;;14.75;84.07
21838;BME280;11081;45.946;6.140;2022-10-16T06:46:23;95337.75;;;14.76;84.43
21838;BME280;11081;45.946;6.140;2022-10-16T06:48:52;95349.63;;;14.78;84.62
21838;BME280;11081;45.946;6.140;2022-10-16T06:51:21;95344.22;;;14.85;84.78
21838;BME280;11081;45.946;6.140;2022-10-16T06:53:51;95344.22;;;14.85;84.22
21838;BME280;11081;45.946;6.140;2022-10-16T06:56:35;95346.91;;;14.90;84.10
21838;BME280;11081;45.946;6.140;2022-10-16T06:59:05;95347.06;;;15.00;83.78
21838;BME280;11081;45.946;6.140;2022-10-16T07:01:33;95358.66;;;15.04;83.35
21838;BME280;11081;45.946;6.140;2022-10-16T07:04:01;95368.69;;;15.07;83.64
21838;BME280;11081;45.946;6.140;2022-10-16T07:06:31;95369.28;;;15.14;83.93
21838;BME280;11081;45.946;6.140;2022-10-16T07:09:03;95368.81;;;15.17;83.78
21838;BME280;11081;45.946;6.140;2022-10-16T07:11:32;95371.53;;;15.22;84.12
21838;BME280;11081;45.946;6.140;2022-10-16T07:14:01;95366.38;;;15.33;83.46
21838;BME280;11081;45.946;6.140;2022-10-16T07:16:32;95375.44;;;15.42;83.05
21838;BME280;11081;45.946;6.140;2022-10-16T07:19:02;95376.03;;;15.49;83.27
21838;BME280;11081;45.946;6.140;2022-10-16T07:21:32;95368.69;;;15.51;83.93
21838;BME280;11081;45.946;6.140;2022-10-16T07:24:04;95371.38;;;15.56;83.46
21838;BME280;11081;45.946;6.140;2022-10-16T07:26:34;95366.19;;;15.61;83.24
21838;BME280;11081;45.946;6.140;2022-10-16T07:29:02;95367.88;;;15.67;83.55
21838;BME280;11081;45.946;6.140;2022-10-16T07:31:32;95374.78;;;15.73;83.50
21838;BME280;11081;45.946;6.140;2022-10-16T07:34:00;95377.91;;;15.70;83.29
21838;BME280;11081;45.946;6.140;2022-10-16T07:36:28;95387.81;;;15.63;84.15
21838;BME280;11081;45.946;6.140;2022-10-16T07:38:56;95389.16;;;15.44;84.72
21838;BME280;11081;45.946;6.140;2022-10-16T07:41:26;95391.34;;;15.52;84.61
21838;BME280;11081;45.946;6.140;2022-10-16T07:43:54;95398.81;;;15.60;84.62
21838;BME280;11081;45.946;6.140;2022-10-16T07:46:23;95405.66;;;15.61;85.22
21838;BME280;11081;45.946;6.140;2022-10-16T07:48:53;95410.38;;;15.59;86.22
21838;BME280;11081;45.946;6.140;2022-10-16T07:51:23;95403.50;;;15.58;86.38
21838;BME280;11081;45.946;6.140;2022-10-16T07:53:52;95423.41;;;15.49;86.21
21838;BME280;11081;45.946;6.140;2022-10-16T07:56:20;95422.34;;;15.50;84.58
21838;BME280;11081;45.946;6.140;2022-10-16T07:58:49;95428.81;;;15.59;82.79
21838;BME280;11081;45.946;6.140;2022-10-16T08:01:18;95427.19;;;15.58;81.06
21838;BME280;11081;45.946;6.140;2022-10-16T08:03:48;95424.28;;;15.76;80.05
21838;BME280;11081;45.946;6.140;2022-10-16T08:06:19;95432.94;;;15.99;78.43
21838;BME280;11081;45.946;6.140;2022-10-16T08:08:54;95428.41;;;16.16;76.75
21838;BME280;11081;45.946;6.140;2022-10-16T08:11:22;95438.53;;;16.29;75.85
21838;BME280;11081;45.946;6.140;2022-10-16T08:13:51;95459.69;;;16.39;75.36
21838;BME280;11081;45.946;6.140;2022-10-16T08:16:19;95464.19;;;16.39;74.89
21838;BME280;11081;45.946;6.140;2022-10-16T08:18:47;95460.78;;;16.43;75.21
21838;BME280;11081;45.946;6.140;2022-10-16T08:21:18;95457.72;;;16.52;74.56
21838;BME280;11081;45.946;6.140;2022-10-16T08:23:47;95452.94;;;16.49;74.40
21838;BME280;11081;45.946;6.140;2022-10-16T08:26:24;95450.75;;;16.40;74.80
21838;BME280;11081;45.946;6.140;2022-10-16T08:28:52;95448.97;;;16.46;74.73
21838;BME280;11081;45.946;6.140;2022-10-16T08:31:21;95458.31;;;16.59;74.67
21838;BME280;11081;45.946;6.140;2022-10-16T08:33:49;95458.44;;;16.69;73.73
21838;BME280;11081;45.946;6.140;2022-10-16T08:36:20;95458.47;;;16.74;72.27
21838;BME280;11081;45.946;6.140;2022-10-16T08:38:49;95456.38;;;16.76;72.63
21838;BME280;11081;45.946;6.140;2022-10-16T08:41:37;95460.88;;;16.81;71.67
21838;BME280;11081;45.946;6.140;2022-10-16T08:44:25;95460.91;;;16.86;71.98
21838;BME280;11081;45.946;6.140;2022-10-16T08:47:02;95467.06;;;16.91;72.71
21838;BME280;11081;45.946;6.140;2022-10-16T08:49:36;95468.13;;;16.95;72.90
21838;BME280;11081;45.946;6.140;2022-10-16T08:52:10;95473.94;;;16.97;72.93
21838;BME280;11081;45.946;6.140;2022-10-16T08:54:43;95472.38;;;17.01;72.98
21838;BME280;11081;45.946;6.140;2022-10-16T08:57:15;95469.78;;;17.06;72.87
21838;BME280;11081;45.946;6.140;2022-10-16T08:59:49;95469.84;;;17.12;72.52
21838;BME280;11081;45.946;6.140;2022-10-16T09:02:24;95468.28;;;17.16;72.37
21838;BME280;11081;45.946;6.140;2022-10-16T09:05:21;95473.84;;;17.19;71.28
21838;BME280;11081;45.946;6.140;2022-10-16T09:08:01;95472.81;;;17.25;71.27
21838;BME280;11081;45.946;6.140;2022-10-16T09:10:46;95468.94;;;17.33;71.60
21838;BME280;11081;45.946;6.140;2022-10-16T09:13:22;95467.91;;;17.39;71.80
21838;BME280;11081;45.946;6.140;2022-10-16T09:15:59;95473.19;;;17.44;70.98
21838;BME280;11081;45.946;6.140;2022-10-16T09:18:37;95464.75;;;17.47;69.78
21838;BME280;11081;45.946;6.140;2022-10-16T09:21:14;95474.28;;;17.48;68.42
21838;BME280;11081;45.946;6.140;2022-10-16T09:23:45;95465.34;;;17.54;67.67
21838;BME280;11081;45.946;6.140;2022-10-16T09:26:14;95480.13;;;17.55;67.32
21838;BME280;11081;45.946;6.140;2022-10-16T09:28:43;95471.19;;;17.61;67.74
21838;BME280;11081;45.946;6.140;2022-10-16T09:31:20;95483.13;;;17.69;67.29
21838;BME280;11081;45.946;6.140;2022-10-16T09:33:51;95471.28;;;17.72;67.69
21838;BME280;11081;45.946;6.140;2022-10-16T09:36:21;95472.34;;;17.76;67.58
21838;BME280;11081;45.946;6.140;2022-10-16T09:39:02;95466.56;;;17.79;67.94
21838;BME280;11081;45.946;6.140;2022-10-16T09:41:30;95466.56;;;17.84;67.47
21838;BME280;11081;45.946;6.140;2022-10-16T09:44:02;95458.91;;;17.87;68.15
21838;BME280;11081;45.946;6.140;2022-10-16T09:46:32;95464.50;;;17.91;67.94
21838;BME280;11081;45.946;6.140;2022-10-16T09:49:03;95465.56;;;17.95;68.25
21838;BME280;11081;45.946;6.140;2022-10-16T09:51:32;95466.56;;;17.89;68.54
21838;BME280;11081;45.946;6.140;2022-10-16T09:54:14;95464.25;;;17.97;66.29
21838;BME280;11081;45.946;6.140;2022-10-16T09:56:42;95468.75;;;18.02;67.58
21838;BME280;11081;45.946;6.140;2022-10-16T09:59:13;95471.91;;;17.99;67.37
21838;BME280;11081;45.946;6.140;2022-10-16T10:01:44;95472.97;;;18.03;67.42
21838;BME280;11081;45.946;6.140;2022-10-16T10:04:13;95469.28;;;18.04;65.53
21838;BME280;11081;45.946;6.140;2022-10-16T10:06:44;95467.16;;;18.06;64.85
21838;BME280;11081;45.946;6.140;2022-10-16T10:09:19;95471.44;;;18.12;65.26
21838;BME280;11081;45.946;6.140;2022-10-16T10:11:51;95467.22;;;18.16;64.39
21838;BME280;11081;45.946;6.140;2022-10-16T10:14:25;95460.88;;;18.27;62.75
21838;BME280;11081;45.946;6.140;2022-10-16T10:17:13;95467.78;;;18.34;64.11
21838;BME280;11081;45.946;6.140;2022-10-16T10:19:46;95463.81;;;18.31;63.87
21838;BME280;11081;45.946;6.140;2022-10-16T10:22:27;95466.22;;;18.43;63.67
21838;BME280;11081;45.946;6.140;2022-10-16T10:25:00;95477.84;;;18.47;64.57
21838;BME280;11081;45.946;6.140;2022-10-16T10:27:39;95472.59;;;18.57;63.63
21838;BME280;11081;45.946;6.140;2022-10-16T10:30:17;95473.66;;;18.61;61.38
21838;BME280;11081;45.946;6.140;2022-10-16T10:32:52;95471.03;;;18.66;61.42
21838;BME280;11081;45.946;6.140;2022-10-16T10:35:30;95475.78;;;18.69;62.54
21838;BME280;11081;45.946;6.140;2022-10-16T10:38:09;95474.75;;;18.75;62.09
21838;BME280;11081;45.946;6.140;2022-10-16T10:40:51;95472.09;;;18.91;60.60
21838;BME280;11081;45.946;6.140;2022-10-16T10:43:33;95458.34;;;18.99;59.72
21838;BME280;11081;45.946;6.140;2022-10-16T10:46:13;95464.69;;;19.13;59.80
21838;BME280;11081;45.946;6.140;2022-10-16T10:48:54;95462.56;;;19.25;60.37
21838;BME280;11081;45.946;6.140;2022-10-16T10:51:30;95463.06;;;19.32;60.31
21838;BME280;11081;45.946;6.140;2022-10-16T10:54:10;95464.13;;;19.31;61.19
21838;BME280;11081;45.946;6.140;2022-10-16T10:56:49;95466.25;;;19.34;61.81
21838;BME280;11081;45.946;6.140;2022-10-16T10:59:35;95467.81;;;19.45;62.19
21838;BME280;11081;45.946;6.140;2022-10-16T11:02:13;95463.56;;;19.49;61.82
21838;BME280;11081;45.946;6.140;2022-10-16T11:07:40;95464.09;;;19.67;62.61
21838;BME280;11081;45.946;6.140;2022-10-16T11:10:14;95456.13;;;19.72;61.71
21838;BME280;11081;45.946;6.140;2022-10-16T11:12:47;95455.03;;;19.78;60.81
21838;BME280;11081;45.946;6.140;2022-10-16T11:15:19;95445.50;;;19.82;61.45
21838;BME280;11081;45.946;6.140;2022-10-16T11:17:52;95443.38;;;19.84;61.40
21838;BME280;11081;45.946;6.140;2022-10-16T11:20:25;95442.25;;;19.95;60.55
21838;BME280;11081;45.946;6.140;2022-10-16T11:22:56;95437.47;;;19.97;59.68
21838;BME280;11081;45.946;6.140;2022-10-16T11:25:29;95437.72;;;20.06;61.12
21838;BME280;11081;45.946;6.140;2022-10-16T11:28:03;95428.66;;;20.12;60.77
21838;BME280;11081;45.946;6.140;2022-10-16T11:30:41;95426.25;;;20.21;60.70
21838;BME280;11081;45.946;6.140;2022-10-16T11:33:25;95431.47;;;20.31;59.44
21838;BME280;11081;45.946;6.140;2022-10-16T11:36:04;95420.31;;;20.34;59.42
21838;BME280;11081;45.946;6.140;2022-10-16T11:38:39;95432.50;;;20.35;58.88
21838;BME280;11081;45.946;6.140;2022-10-16T11:41:17;95425.59;;;20.34;59.05
21838;BME280;11081;45.946;6.140;2022-10-16T11:43:52;95422.44;;;20.32;60.51
21838;BME280;11081;45.946;6.140;2022-10-16T11:46:26;95416.53;;;20.40;61.47
21838;BME280;11081;45.946;6.140;2022-10-16T11:49:00;95410.16;;;20.51;60.60
21838;BME280;11081;45.946;6.140;2022-10-16T11:51:33;95421.22;;;20.58;59.60
21838;BME280;11081;45.946;6.140;2022-10-16T11:54:08;95420.66;;;20.61;58.82
21838;BME280;11081;45.946;6.140;2022-10-16T11:56:44;95424.88;;;20.67;57.32
21838;BME280;11081;45.946;6.140;2022-10-16T11:59:20;95419.03;;;20.70;56.47
21838;BME280;11081;45.946;6.140;2022-10-16T12:01:55;95422.41;;;20.76;56.49
21838;BME280;11081;45.946;6.140;2022-10-16T12:04:29;95413.94;;;20.74;55.48
21838;BME280;11081;45.946;6.140;2022-10-16T12:07:04;95421.84;;;20.79;55.07
21838;BME280;11081;45.946;6.140;2022-10-16T12:09:36;95418.28;;;20.94;54.95
21838;BME280;11081;45.946;6.140;2022-10-16T12:12:24;95415.28;;;21.06;55.27
21838;BME280;11081;45.946;6.140;2022-10-16T12:15:03;95413.94;;;21.08;55.08
21838;BME280;11081;45.946;6.140;2022-10-16T12:18:00;95405.91;;;21.13;55.99
21838;BME280;11081;45.946;6.140;2022-10-16T12:20:30;95409.28;;;21.19;57.23
21838;BME280;11081;45.946;6.140;2022-10-16T12:23:00;95410.59;;;21.26;57.44
21838;BME280;11081;45.946;6.140;2022-10-16T12:25:31;95404.78;;;21.19;55.27
21838;BME280;11081;45.946;6.140;2022-10-16T12:28:03;95412.75;;;21.24;56.43
21838;BME280;11081;45.946;6.140;2022-10-16T12:30:35;95398.69;;;21.19;55.26
21838;BME280;11081;45.946;6.140;2022-10-16T12:33:05;95409.47;;;21.33;56.19
21838;BME280;11081;45.946;6.140;2022-10-16T12:35:35;95405.09;;;21.42;55.37
21838;BME280;11081;45.946;6.140;2022-10-16T12:38:19;95406.69;;;21.43;54.99
21838;BME280;11081;45.946;6.140;2022-10-16T12:40:56;95406.09;;;21.51;55.17
21838;BME280;11081;45.946;6.140;2022-10-16T12:43:34;95404.38;;;21.60;55.54
21838;BME280;11081;45.946;6.140;2022-10-16T12:46:06;95401.91;;;21.69;55.59
21838;BME280;11081;45.946;6.140;2022-10-16T12:48:48;95395.66;;;21.78;55.21
21838;BME280;11081;45.946;6.140;2022-10-16T12:51:35;95399.47;;;21.72;55.18
21838;BME280;11081;45.946;6.140;2022-10-16T12:54:10;95410.59;;;21.74;56.12
21838;BME280;11081;45.946;6.140;2022-10-16T12:56:46;95391.91;;;21.79;53.63
21838;BME280;11081;45.946;6.140;2022-10-16T12:59:24;95403.19;;;21.71;54.77
21838;BME280;11081;45.946;6.140;2022-10-16T13:02:24;95399.97;;;21.74;55.37
21838;BME280;11081;45.946;6.140;2022-10-16T13:05:12;95399.81;;;21.84;55.61
21838;BME280;11081;45.946;6.140;2022-10-16T13:07:51;95395.97;;;21.96;54.85
21838;BME280;11081;45.946;6.140;2022-10-16T13:10:25;95404.34;;;22.08;55.02
21838;BME280;11081;45.946;6.140;2022-10-16T13:13:19;95396.31;;;22.13;54.23
21838;BME280;11081;45.946;6.140;2022-10-16T13:15:59;95392.00;;;22.17;54.38
21838;BME280;11081;45.946;6.140;2022-10-16T13:18:38;95386.66;;;22.17;54.86
21838;BME280;11081;45.946;6.140;2022-10-16T13:21:19;95383.34;;;22.25;54.92
21838;BME280;11081;45.946;6.140;2022-10-16T13:23:55;95390.50;;;22.30;54.92
21838;BME280;11081;45.946;6.140;2022-10-16T13:26:34;95397.16;;;22.27;54.58
21838;BME280;11081;45.946;6.140;2022-10-16T13:29:04;95398.31;;;22.21;55.51